createdAt,value
2019-02-03T00:02:16.561Z,99103.59
2019-02-03T00:04:47.066Z,99094.73
2019-02-03T00:07:17.683Z,99098.69
2019-02-03T00:09:48.131Z,99107.88
2019-02-03T00:12:18.617Z,99105.14
2019-02-03T00:14:49.059Z,99108.36
2019-02-03T00:17:19.699Z,99111.61
2019-02-03T00:19:50.143Z,99117.45
2019-02-03T00:22:20.599Z,99125.47
2019-02-03T00:24:51.071Z,99128.35
2019-02-03T00:27:21.527Z,99127.98
2019-02-03T00:29:52.978Z,99126.79
2019-02-03T00:32:23.423Z,99125.72
2019-02-03T00:34:54.195Z,99129.30
2019-02-03T00:37:24.676Z,99130.00
2019-02-03T00:39:55.170Z,99138.88
2019-02-03T00:42:25.689Z,99139.70
2019-02-03T00:44:56.239Z,99143.53
2019-02-03T00:47:26.688Z,99150.11
2019-02-03T00:49:57.441Z,99151.76
2019-02-03T00:52:27.892Z,99150.93
2019-02-03T00:54:58.390Z,99155.49
2019-02-03T00:57:28.843Z,99157.39
2019-02-03T00:59:59.623Z,99163.02
2019-02-03T01:02:30.399Z,99163.75
2019-02-03T01:05:01.115Z,99173.54
2019-02-03T01:07:31.610Z,99185.02
2019-02-03T01:10:02.060Z,99186.53
2019-02-03T01:12:33.531Z,99188.22
2019-02-03T01:15:04.910Z,99195.03
2019-02-03T01:17:35.354Z,99199.55
2019-02-03T01:20:08.006Z,99208.39
2019-02-03T01:22:38.525Z,99209.39
2019-02-03T01:25:10.891Z,99222.18
2019-02-03T01:27:41.443Z,99225.16
2019-02-03T01:30:15.155Z,99230.55
2019-02-03T01:32:45.643Z,99237.50
2019-02-03T01:35:16.481Z,99249.17
2019-02-03T01:37:47.135Z,99256.10
2019-02-03T01:40:18.484Z,99267.20
2019-02-03T01:42:49.699Z,99267.20
2019-02-03T01:45:21.057Z,99269.83
2019-02-03T01:47:51.509Z,99271.06
2019-02-03T01:50:21.952Z,99276.34
2019-02-03T01:52:52.769Z,99270.45
2019-02-03T01:55:24.725Z,99260.76
2019-02-03T01:57:55.595Z,99260.30
2019-02-03T02:00:27.982Z,99259.49
2019-02-03T02:02:59.008Z,99264.62
2019-02-03T02:05:29.486Z,99264.13
2019-02-03T02:07:59.934Z,99266.78
2019-02-03T02:10:30.546Z,99271.60
2019-02-03T02:13:01.014Z,99277.23
2019-02-03T02:15:32.263Z,99277.60
2019-02-03T02:18:02.735Z,99271.72
2019-02-03T02:20:33.183Z,99275.16
2019-02-03T02:23:03.749Z,99278.97
2019-02-03T02:25:35.162Z,99282.56
2019-02-03T02:28:06.264Z,99286.84
2019-02-03T02:30:36.755Z,99300.45
2019-02-03T02:33:07.193Z,99296.27
2019-02-03T02:35:37.687Z,99297.11
2019-02-03T02:38:08.477Z,99295.22
2019-02-03T02:40:39.327Z,99303.48
2019-02-03T02:43:10.076Z,99300.47
2019-02-03T02:45:40.832Z,99300.39
2019-02-03T02:48:11.486Z,99296.92
2019-02-03T02:50:43.962Z,99287.48
2019-02-03T02:53:14.781Z,99299.41
2019-02-03T02:55:45.625Z,99300.59
2019-02-03T02:58:16.363Z,99304.91
2019-02-03T03:00:46.880Z,99304.47
2019-02-03T03:03:17.328Z,99302.39
2019-02-03T03:05:48.534Z,99296.64
2019-02-03T03:08:19.883Z,99280.86
2019-02-03T03:10:50.435Z,99278.20
2019-02-03T03:13:20.911Z,99269.41
2019-02-03T03:15:51.354Z,99269.14
2019-02-03T03:18:22.567Z,99269.63
2019-02-03T03:20:53.909Z,99279.77
2019-02-03T03:23:24.363Z,99294.11
2019-02-03T03:25:55.775Z,99309.70
2019-02-03T03:28:26.228Z,99325.42
2019-02-03T03:30:56.908Z,99336.66
2019-02-03T03:33:27.362Z,99346.61
2019-02-03T03:35:57.807Z,99349.61
2019-02-03T03:38:32.314Z,99352.35
2019-02-03T03:41:00.892Z,99354.61
2019-02-03T03:43:32.316Z,99356.09
2019-02-03T03:46:06.332Z,99359.53
2019-02-03T03:48:35.510Z,99359.19
2019-02-03T03:51:06.575Z,99362.50
2019-02-03T03:53:37.019Z,99361.88
2019-02-03T03:56:08.283Z,99368.22
2019-02-03T03:58:38.730Z,99378.74
2019-02-03T04:01:09.337Z,99373.85
2019-02-03T04:03:39.854Z,99375.11
2019-02-03T04:06:10.306Z,99377.42
2019-02-03T04:08:45.326Z,99384.20
2019-02-03T04:11:13.442Z,99383.74
2019-02-03T04:13:43.884Z,99387.95
2019-02-03T04:16:15.429Z,99390.77
2019-02-03T04:18:45.869Z,99395.39
2019-02-03T04:21:16.364Z,99401.22
2019-02-03T04:23:47.082Z,99405.27
2019-02-03T04:26:18.453Z,99411.28
2019-02-03T04:28:48.927Z,99410.53
2019-02-03T04:31:19.372Z,99418.28
2019-02-03T04:33:49.859Z,99424.09
2019-02-03T04:36:20.460Z,99419.52
2019-02-03T04:38:58.413Z,99426.80
2019-02-03T04:41:23.390Z,99425.16
2019-02-03T04:43:53.930Z,99434.09
2019-02-03T04:46:24.735Z,99431.27
2019-02-03T04:48:55.242Z,99432.92
2019-02-03T04:51:25.690Z,99435.40
2019-02-03T04:53:56.562Z,99438.83
2019-02-03T04:56:27.000Z,99441.61
2019-02-03T04:58:57.875Z,99428.25
2019-02-03T05:01:29.023Z,99436.29
2019-02-03T05:03:59.611Z,99431.68
2019-02-03T05:06:30.128Z,99432.47
2019-02-03T05:09:10.794Z,99434.36
2019-02-03T05:11:33.928Z,99430.22
2019-02-03T05:14:04.575Z,99439.47
2019-02-03T05:16:35.038Z,99441.08
2019-02-03T05:19:06.305Z,99437.06
2019-02-03T05:21:37.478Z,99443.27
2019-02-03T05:24:07.954Z,99442.33
2019-02-03T05:26:38.389Z,99441.05
2019-02-03T05:29:08.954Z,99441.05
2019-02-03T05:31:39.864Z,99445.48
2019-02-03T05:34:11.110Z,99443.30
2019-02-03T05:36:41.578Z,99448.41
2019-02-03T05:39:23.872Z,99461.56
2019-02-03T05:41:44.217Z,99452.31
2019-02-03T05:44:14.662Z,99452.66
2019-02-03T05:46:45.483Z,99457.12
2019-02-03T05:49:16.322Z,99453.33
2019-02-03T05:51:46.766Z,99461.08
2019-02-03T05:54:17.559Z,99465.81
2019-02-03T05:56:47.998Z,99468.89
2019-02-03T05:59:18.626Z,99477.58
2019-02-03T06:01:49.328Z,99473.47
2019-02-03T06:04:20.162Z,99485.05
2019-02-03T06:06:50.751Z,99492.94
2019-02-03T06:09:21.185Z,99498.27
2019-02-03T06:11:52.366Z,99501.02
2019-02-03T06:14:22.834Z,99498.72
2019-02-03T06:16:53.633Z,99510.06
2019-02-03T06:19:24.132Z,99513.28
2019-02-03T06:21:54.567Z,99523.54
2019-02-03T06:24:25.958Z,99532.58
2019-02-03T06:26:56.439Z,99538.53
2019-02-03T06:29:26.874Z,99539.55
2019-02-03T06:31:57.341Z,99545.45
2019-02-03T06:34:28.106Z,99558.87
2019-02-03T06:36:59.147Z,99566.22
2019-02-03T06:39:29.957Z,99570.17
2019-02-03T06:42:00.845Z,99584.63
2019-02-03T06:44:31.290Z,99581.60
2019-02-03T06:47:07.030Z,99594.97
2019-02-03T06:49:39.478Z,99603.03
2019-02-03T06:52:09.897Z,99609.98
2019-02-03T06:54:40.366Z,99611.47
2019-02-03T06:57:11.159Z,99614.47
2019-02-03T06:59:50.378Z,99613.54
2019-02-03T07:02:14.655Z,99619.52
2019-02-03T07:04:45.822Z,99623.68
2019-02-03T07:07:16.291Z,99628.55
2019-02-03T07:09:47.120Z,99637.66
2019-02-03T07:12:17.604Z,99646.62
2019-02-03T07:14:48.318Z,99651.67
2019-02-03T07:17:19.132Z,99658.80
2019-02-03T07:19:50.037Z,99665.03
2019-02-03T07:22:20.473Z,99672.34
2019-02-03T07:24:50.970Z,99674.57
2019-02-03T07:27:21.414Z,99670.64
2019-02-03T07:29:52.166Z,99676.06
2019-02-03T07:32:22.629Z,99675.51
2019-02-03T07:34:53.121Z,99673.36
2019-02-03T07:37:24.004Z,99681.05
2019-02-03T07:39:54.428Z,99685.97
2019-02-03T07:42:25.166Z,99688.33
2019-02-03T07:44:55.742Z,99688.16
2019-02-03T07:47:26.914Z,99693.03
2019-02-03T07:49:57.404Z,99695.12
2019-02-03T07:52:28.182Z,99694.67
2019-02-03T07:54:58.624Z,99691.94
2019-02-03T07:57:29.094Z,99690.52
2019-02-03T07:59:59.882Z,99691.07
2019-02-03T08:02:30.660Z,99701.20
2019-02-03T08:05:01.124Z,99711.89
2019-02-03T08:07:31.851Z,99703.77
2019-02-03T08:10:02.687Z,99708.88
2019-02-03T08:12:33.999Z,99712.55
2019-02-03T08:15:06.503Z,99720.16
2019-02-03T08:17:36.942Z,99722.52
2019-02-03T08:20:10.372Z,99720.34
2019-02-03T08:22:40.836Z,99727.60
2019-02-03T08:25:12.948Z,99724.00
2019-02-03T08:27:43.443Z,99723.06
2019-02-03T08:30:16.702Z,99732.45
2019-02-03T08:32:47.138Z,99727.45
2019-02-03T08:35:19.890Z,99730.58
2019-02-03T08:37:50.142Z,99733.58
2019-02-03T08:40:21.173Z,99740.71
2019-02-03T08:42:51.976Z,99734.03
2019-02-03T08:45:22.660Z,99738.91
2019-02-03T08:47:53.103Z,99732.88
2019-02-03T08:50:23.646Z,99741.64
2019-02-03T08:52:54.232Z,99734.20
2019-02-03T08:55:24.671Z,99742.64
2019-02-03T08:57:57.717Z,99743.29
2019-02-03T09:00:28.753Z,99743.64
2019-02-03T09:02:59.288Z,99748.02
2019-02-03T09:05:30.555Z,99747.25
2019-02-03T09:08:01.020Z,99752.24
2019-02-03T09:10:31.461Z,99754.31
2019-02-03T09:13:01.951Z,99764.63
2019-02-03T09:15:32.397Z,99764.13
2019-02-03T09:18:03.569Z,99760.56
2019-02-03T09:20:34.628Z,99770.61
2019-02-03T09:23:06.765Z,99775.04
2019-02-03T09:25:37.565Z,99778.40
2019-02-03T09:28:08.881Z,99776.08
2019-02-03T09:30:40.223Z,99788.16
2019-02-03T09:33:11.691Z,99792.48
2019-02-03T09:35:42.141Z,99802.51
2019-02-03T09:38:13.698Z,99805.70
2019-02-03T09:40:44.154Z,99815.89
2019-02-03T09:43:15.007Z,99820.17
2019-02-03T09:45:45.461Z,99826.80
2019-02-03T09:48:16.300Z,99833.13
2019-02-03T09:50:46.790Z,99844.58
2019-02-03T09:53:17.234Z,99846.44
2019-02-03T09:55:48.046Z,99853.48
2019-02-03T09:58:18.516Z,99861.80
2019-02-03T10:00:48.960Z,99866.94
2019-02-03T10:03:19.442Z,99879.23
2019-02-03T10:05:49.880Z,99882.03
2019-02-03T10:08:20.821Z,99889.77
2019-02-03T10:10:51.370Z,99885.44
2019-02-03T10:13:21.821Z,99885.92
2019-02-03T10:15:52.763Z,99886.17
2019-02-03T10:18:23.636Z,99889.80
2019-02-03T10:20:54.139Z,99896.20
2019-02-03T10:23:24.588Z,99904.94
2019-02-03T10:25:55.533Z,99902.25
2019-02-03T10:28:26.090Z,99895.52
2019-02-03T10:30:56.646Z,99900.00
2019-02-03T10:33:27.494Z,99901.81
2019-02-03T10:35:58.325Z,99905.39
2019-02-03T10:38:29.540Z,99908.21
2019-02-03T10:41:00.335Z,99911.12
2019-02-03T10:43:30.789Z,99907.22
2019-02-03T10:46:01.238Z,99913.09
2019-02-03T10:48:32.222Z,99901.41
2019-02-03T10:51:03.146Z,99903.11
2019-02-03T10:53:33.571Z,99910.34
2019-02-03T10:56:05.263Z,99915.25
2019-02-03T10:58:36.104Z,99913.14
2019-02-03T11:01:06.925Z,99917.66
2019-02-03T11:03:37.442Z,99924.33
2019-02-03T11:06:08.934Z,99918.48
2019-02-03T11:08:39.565Z,99919.36
2019-02-03T11:11:10.058Z,99913.66
2019-02-03T11:13:41.177Z,99919.95
2019-02-03T11:16:11.645Z,99919.16
2019-02-03T11:18:42.918Z,99921.47
2019-02-03T11:21:13.364Z,99914.72
2019-02-03T11:23:43.816Z,99916.86
2019-02-03T11:26:14.399Z,99920.25
2019-02-03T11:28:44.934Z,99915.58
2019-02-03T11:31:15.386Z,99914.18
2019-02-03T11:33:45.890Z,99916.63
2019-02-03T11:36:16.360Z,99923.60
2019-02-03T11:38:47.165Z,99920.53
2019-02-03T11:41:17.663Z,99919.94
2019-02-03T11:43:48.102Z,99923.89
2019-02-03T11:46:18.543Z,99925.47
2019-02-03T11:48:49.053Z,99931.77
2019-02-03T11:51:19.493Z,99931.05
2019-02-03T11:53:49.951Z,99931.55
2019-02-03T11:56:21.014Z,99931.87
2019-02-03T11:58:51.462Z,99931.27
2019-02-03T12:01:22.309Z,99930.18
2019-02-03T12:03:52.798Z,99934.31
2019-02-03T12:06:23.249Z,99935.18
2019-02-03T12:08:53.690Z,99938.66
2019-02-03T12:11:24.182Z,99941.55
2019-02-03T12:13:55.141Z,99943.25
2019-02-03T12:16:25.962Z,99946.61
2019-02-03T12:18:57.363Z,99944.45
2019-02-03T12:21:30.029Z,99944.64
2019-02-03T12:24:00.341Z,99951.98
2019-02-03T12:26:31.265Z,99954.11
2019-02-03T12:29:01.709Z,99955.20
2019-02-03T12:31:32.705Z,99959.16
2019-02-03T12:34:03.197Z,99961.38
2019-02-03T12:36:34.649Z,99962.92
2019-02-03T12:39:08.494Z,99963.30
2019-02-03T12:41:39.848Z,99970.84
2019-02-03T12:44:10.456Z,99966.55
2019-02-03T12:46:41.370Z,99977.00
2019-02-03T12:49:12.214Z,99975.22
2019-02-03T12:51:43.535Z,99987.36
2019-02-03T12:54:14.450Z,99976.11
2019-02-03T12:56:44.898Z,99984.04
2019-02-03T12:59:15.345Z,99985.02
2019-02-03T13:01:46.222Z,99992.77
2019-02-03T13:04:16.708Z,99991.97
2019-02-03T13:06:47.161Z,100004.30
2019-02-03T13:09:19.966Z,100002.95
2019-02-03T13:11:50.452Z,100006.45
2019-02-03T13:14:21.318Z,100011.45
2019-02-03T13:16:51.822Z,100012.56
2019-02-03T13:19:23.584Z,100015.30
2019-02-03T13:21:54.808Z,100020.41
2019-02-03T13:24:25.317Z,100021.61
2019-02-03T13:26:56.163Z,100035.34
2019-02-03T13:29:26.891Z,100033.84
2019-02-03T13:32:10.165Z,100042.80
2019-02-03T13:34:30.439Z,100048.94
2019-02-03T13:37:01.358Z,100051.52
2019-02-03T13:39:31.877Z,100055.77
2019-02-03T13:42:02.329Z,100051.09
2019-02-03T13:44:33.539Z,100062.25
2019-02-03T13:47:04.338Z,100063.11
2019-02-03T13:49:35.129Z,100063.73
2019-02-03T13:52:06.159Z,100061.61
2019-02-03T13:54:37.139Z,100058.73
2019-02-03T13:57:07.612Z,100061.59
2019-02-03T13:59:38.074Z,100065.55
2019-02-03T14:02:09.381Z,100067.82
2019-02-03T14:04:39.842Z,100063.59
2019-02-03T14:07:12.474Z,100077.37
2019-02-03T14:09:42.960Z,100072.58
2019-02-03T14:12:13.459Z,100070.77
2019-02-03T14:14:43.918Z,100078.29
2019-02-03T14:17:14.422Z,100077.87
2019-02-03T14:19:44.878Z,100081.34
2019-02-03T14:22:16.405Z,100085.72
2019-02-03T14:24:49.647Z,100083.41
2019-02-03T14:27:20.118Z,100087.28
2019-02-03T14:29:50.588Z,100085.85
2019-02-03T14:32:21.478Z,100089.70
2019-02-03T14:34:51.928Z,100087.70
2019-02-03T14:37:22.689Z,100089.36
2019-02-03T14:39:53.201Z,100089.22
2019-02-03T14:42:24.372Z,100099.13
2019-02-03T14:44:55.924Z,100108.30
2019-02-03T14:47:26.865Z,100105.34
2019-02-03T14:49:58.016Z,100105.34
2019-02-03T14:52:28.634Z,100111.27
2019-02-03T14:54:59.505Z,100114.75
2019-02-03T14:57:30.628Z,100115.59
2019-02-03T15:00:01.086Z,100127.19
2019-02-03T15:02:31.607Z,100131.03
2019-02-03T15:05:02.044Z,100132.47
2019-02-03T15:07:37.660Z,100135.23
2019-02-03T15:10:05.902Z,100138.15
2019-02-03T15:12:36.350Z,100143.02
2019-02-03T15:15:09.262Z,100146.94
2019-02-03T15:17:40.206Z,100143.70
2019-02-03T15:20:13.308Z,100152.74
2019-02-03T15:22:43.765Z,100154.02
2019-02-03T15:25:15.237Z,100157.54
2019-02-03T15:27:46.026Z,100165.01
2019-02-03T15:30:22.665Z,100165.69
2019-02-03T15:32:53.117Z,100169.87
2019-02-03T15:35:24.007Z,100175.39
2019-02-03T15:37:54.493Z,100175.15
2019-02-03T15:40:24.959Z,100180.35
2019-02-03T15:42:55.537Z,100180.16
2019-02-03T15:45:26.211Z,100187.06
2019-02-03T15:47:56.688Z,100181.91
2019-02-03T15:50:28.856Z,100189.38
2019-02-03T15:52:59.780Z,100186.07
2019-02-03T15:55:31.580Z,100187.02
2019-02-03T15:58:02.536Z,100192.13
2019-02-03T16:00:35.376Z,100195.12
2019-02-03T16:03:08.700Z,100201.11
2019-02-03T16:05:39.977Z,100196.93
2019-02-03T16:08:11.469Z,100199.57
2019-02-03T16:10:42.978Z,100203.64
2019-02-03T16:13:15.220Z,100213.66
2019-02-03T16:15:46.175Z,100211.29
2019-02-03T16:18:17.527Z,100220.93
2019-02-03T16:20:48.150Z,100216.97
2019-02-03T16:23:19.415Z,100214.38
2019-02-03T16:25:49.865Z,100221.16
2019-02-03T16:28:20.308Z,100225.60
2019-02-03T16:30:51.577Z,100240.02
2019-02-03T16:33:22.217Z,100241.93
2019-02-03T16:35:52.659Z,100243.59
2019-02-03T16:38:24.111Z,100250.13
2019-02-03T16:40:55.605Z,100254.08
2019-02-03T16:43:26.448Z,100258.56
2019-02-03T16:45:59.271Z,100260.95
2019-02-03T16:48:30.389Z,100263.05
2019-02-03T16:51:00.854Z,100272.36
2019-02-03T16:53:32.051Z,100277.36
2019-02-03T16:56:02.998Z,100278.19
2019-02-03T16:58:33.755Z,100281.53
2019-02-03T17:01:05.159Z,100287.30
2019-02-03T17:03:35.659Z,100292.95
2019-02-03T17:06:06.449Z,100293.03
2019-02-03T17:08:37.473Z,100307.86
2019-02-03T17:11:08.737Z,100312.86
2019-02-03T17:13:39.161Z,100316.43
2019-02-03T17:16:10.013Z,100315.49
2019-02-03T17:18:40.470Z,100325.50
2019-02-03T17:21:11.589Z,100326.73
2019-02-03T17:23:43.244Z,100327.85
2019-02-03T17:26:13.994Z,100326.71
2019-02-03T17:28:44.448Z,100327.30
2019-02-03T17:31:14.945Z,100336.33
2019-02-03T17:33:46.655Z,100351.24
2019-02-03T17:36:17.700Z,100356.97
2019-02-03T17:38:48.589Z,100359.71
2019-02-03T17:41:19.042Z,100357.27
2019-02-03T17:43:49.647Z,100358.11
2019-02-03T17:46:20.135Z,100365.00
2019-02-03T17:48:50.999Z,100368.48
2019-02-03T17:51:23.541Z,100372.17
2019-02-03T17:53:54.402Z,100377.70
2019-02-03T17:56:25.169Z,100380.34
2019-02-03T17:58:57.238Z,100385.34
2019-02-03T18:01:27.812Z,100390.33
2019-02-03T18:03:58.248Z,100394.95
2019-02-03T18:06:28.699Z,100401.27
2019-02-03T18:08:59.254Z,100394.35
2019-02-03T18:11:29.818Z,100396.52
2019-02-03T18:14:00.545Z,100401.14
2019-02-03T18:16:31.025Z,100403.97
2019-02-03T18:19:02.260Z,100406.67
2019-02-03T18:21:32.792Z,100409.11
2019-02-03T18:24:03.619Z,100400.47
2019-02-03T18:26:37.542Z,100410.23
2019-02-03T18:29:08.338Z,100415.70
2019-02-03T18:31:39.896Z,100420.20
2019-02-03T18:34:10.949Z,100426.30
2019-02-03T18:36:41.394Z,100423.95
2019-02-03T18:39:11.949Z,100432.45
2019-02-03T18:41:42.741Z,100439.23
2019-02-03T18:44:13.313Z,100439.42
2019-02-03T18:46:43.841Z,100444.02
2019-02-03T18:49:14.303Z,100445.05
2019-02-03T18:51:45.121Z,100447.86
2019-02-03T18:54:15.983Z,100450.02
2019-02-03T18:56:47.122Z,100457.43
2019-02-03T18:59:17.585Z,100463.05
2019-02-03T19:01:48.105Z,100462.80
2019-02-03T19:04:18.823Z,100467.47
2019-02-03T19:06:49.629Z,100473.38
2019-02-03T19:09:20.145Z,100474.66
2019-02-03T19:11:51.030Z,100475.97
2019-02-03T19:14:22.976Z,100478.11
2019-02-03T19:16:54.466Z,100491.88
2019-02-03T19:19:25.186Z,100488.17
2019-02-03T19:21:55.633Z,100492.64
2019-02-03T19:24:26.492Z,100496.20
2019-02-03T19:26:57.640Z,100494.52
2019-02-03T19:29:28.449Z,100490.58
2019-02-03T19:31:58.958Z,100503.86
2019-02-03T19:34:29.746Z,100498.39
2019-02-03T19:37:05.554Z,100510.58
2019-02-03T19:39:32.736Z,100509.64
2019-02-03T19:42:03.472Z,100513.12
2019-02-03T19:44:34.329Z,100515.42
2019-02-03T19:47:05.417Z,100521.14
2019-02-03T19:49:45.993Z,100522.34
2019-02-03T19:52:08.587Z,100528.59
2019-02-03T19:54:40.042Z,100523.11
2019-02-03T19:57:10.634Z,100531.62
2019-02-03T19:59:46.848Z,100539.22
2019-02-03T20:02:13.317Z,100535.09
2019-02-03T20:04:50.932Z,100542.69
2019-02-03T20:07:21.744Z,100545.65
2019-02-03T20:09:52.565Z,100545.86
2019-02-03T20:12:24.260Z,100555.47
2019-02-03T20:14:54.914Z,100554.56
2019-02-03T20:17:25.861Z,100548.99
2019-02-03T20:19:56.726Z,100559.47
2019-02-03T20:22:27.968Z,100552.11
2019-02-03T20:24:58.453Z,100560.54
2019-02-03T20:27:28.956Z,100562.94
2019-02-03T20:29:59.422Z,100560.13
2019-02-03T20:32:29.933Z,100572.37
2019-02-03T20:35:00.971Z,100574.62
2019-02-03T20:37:31.915Z,100575.63
2019-02-03T20:40:02.982Z,100573.49
2019-02-03T20:42:33.550Z,100582.05
2019-02-03T20:45:04.947Z,100589.16
2019-02-03T20:47:38.092Z,100585.16
2019-02-03T20:50:11.326Z,100583.90
2019-02-03T20:52:42.164Z,100587.88
2019-02-03T20:55:13.351Z,100597.63
2019-02-03T20:57:44.292Z,100600.34
2019-02-03T21:00:20.453Z,100610.09
2019-02-03T21:02:51.203Z,100613.03
2019-02-03T21:05:21.742Z,100615.52
2019-02-03T21:07:52.665Z,100620.70
2019-02-03T21:10:23.408Z,100619.95
2019-02-03T21:12:54.272Z,100625.03
2019-02-03T21:15:33.538Z,100636.13
2019-02-03T21:17:58.361Z,100647.65
2019-02-03T21:20:31.045Z,100644.70
2019-02-03T21:23:02.000Z,100651.68
2019-02-03T21:25:32.447Z,100656.86
2019-02-03T21:28:03.023Z,100659.66
2019-02-03T21:30:35.975Z,100659.48
2019-02-03T21:33:07.433Z,100659.16
2019-02-03T21:35:37.868Z,100674.73
2019-02-03T21:38:09.988Z,100674.75
2019-02-03T21:40:40.452Z,100680.25
2019-02-03T21:43:11.393Z,100676.92
2019-02-03T21:45:45.045Z,100680.15
2019-02-03T21:48:14.362Z,100690.77
2019-02-03T21:50:44.868Z,100692.55
2019-02-03T21:53:15.366Z,100687.19
2019-02-03T21:55:46.204Z,100680.69
2019-02-03T21:58:16.702Z,100690.83
2019-02-03T22:00:47.138Z,100688.82
2019-02-03T22:03:17.904Z,100687.37
2019-02-03T22:05:48.382Z,100695.26
2019-02-03T22:08:19.584Z,100696.58
2019-02-03T22:10:50.074Z,100690.38
2019-02-03T22:13:20.542Z,100692.09
2019-02-03T22:15:55.910Z,100692.38
2019-02-03T22:18:23.328Z,100696.40
2019-02-03T22:20:53.746Z,100694.49
2019-02-03T22:23:24.229Z,100689.44
2019-02-03T22:25:55.043Z,100700.67
2019-02-03T22:28:25.487Z,100704.16
2019-02-03T22:30:55.959Z,100698.42
2019-02-03T22:33:26.394Z,100703.77
2019-02-03T22:35:57.221Z,100707.19
2019-02-03T22:38:27.657Z,100712.35
2019-02-03T22:40:58.101Z,100709.80
2019-02-03T22:43:29.493Z,100707.09
2019-02-03T22:46:06.863Z,100713.05
2019-02-03T22:48:32.114Z,100720.09
2019-02-03T22:51:03.346Z,100729.39
2019-02-03T22:53:34.106Z,100733.65
2019-02-03T22:56:04.784Z,100735.80
2019-02-03T22:58:35.648Z,100737.80
2019-02-03T23:01:19.835Z,100739.20
2019-02-03T23:03:59.009Z,100737.02
2019-02-03T23:06:31.161Z,100743.06
2019-02-03T23:09:05.360Z,100736.88
2019-02-03T23:11:35.996Z,100734.55
2019-02-03T23:14:06.880Z,100741.91
2019-02-03T23:16:37.319Z,100742.98
2019-02-03T23:19:07.785Z,100744.91
2019-02-03T23:21:38.227Z,100743.55
2019-02-03T23:24:09.214Z,100743.47
2019-02-03T23:26:39.817Z,100748.05
2019-02-03T23:29:10.527Z,100753.07
2019-02-03T23:31:41.341Z,100749.88
2019-02-03T23:34:12.062Z,100756.06
2019-02-03T23:36:42.895Z,100756.86
2019-02-03T23:39:14.407Z,100757.38
2019-02-03T23:41:45.007Z,100767.27
2019-02-03T23:44:15.529Z,100771.45
2019-02-03T23:46:46.342Z,100770.22
2019-02-03T23:49:17.906Z,100770.66
2019-02-03T23:51:48.340Z,100778.43
2019-02-03T23:54:18.786Z,100765.87
2019-02-03T23:56:49.610Z,100777.72
2019-02-03T23:59:20.432Z,100782.58
